Time;durP1;ratioP1;P1;durP2;ratioP2;P2;SDS_P1;SDS_P2;PMS_P1;PMS_P2;Temp;Humidity;BMP_temperature;BMP_pressure;BME280_temperature;BME280_humidity;BME280_pressure;Samples;Min_cycle;Max_cycle;Signal;HPM_P1;HPM_P2
2021/08/14 00:02:52;;;;;;;42.33;11.93;;;;;;;20.03;62.93;102136.31;10526157;28;20036;-79
2021/08/14 00:07:53;;;;;;;22.30;8.07;;;;;;;20.03;62.87;102132.75;10526234;28;20109;-79
2021/08/14 00:12:53;;;;;;;16.30;7.28;;;;;;;19.65;62.67;102078.84;10524943;28;20059;-79
2021/08/14 00:17:53;;;;;;;19.27;4.20;;;;;;;19.97;63.37;102132.59;10543927;28;20094;-79
2021/08/14 00:22:54;;;;;;;15.50;5.63;;;;;;;19.98;63.39;102133.44;10544581;28;20036;-79
2021/08/14 00:27:54;;;;;;;17.38;7.30;;;;;;;19.59;63.13;102060.50;10543977;28;20433;-79
2021/08/14 00:32:55;;;;;;;27.58;7.50;;;;;;;19.92;63.24;102128.88;10543619;28;20063;-79
2021/08/14 00:37:55;;;;;;;16.60;4.93;;;;;;;19.91;63.58;102116.16;10525514;28;20134;-79
2021/08/14 00:42:56;;;;;;;15.88;5.50;;;;;;;19.89;64.05;102129.31;10507770;28;20028;-79
2021/08/14 00:47:56;;;;;;;12.65;5.30;;;;;;;19.97;63.61;102118.84;10542536;28;20044;-79
2021/08/14 00:52:57;;;;;;;11.27;4.45;;;;;;;19.95;63.66;102120.16;10524940;28;20032;-79
2021/08/14 00:57:57;;;;;;;16.98;5.85;;;;;;;19.97;63.58;102131.75;10523488;28;20063;-79
2021/08/14 01:02:58;;;;;;;14.90;7.05;;;;;;;20.00;63.66;102120.28;10518670;28;20472;-79
2021/08/14 01:07:58;;;;;;;22.13;7.32;;;;;;;19.83;64.89;102114.56;10540223;28;20469;-79
2021/08/14 01:12:59;;;;;;;17.05;5.10;;;;;;;19.88;64.24;102100.16;10536148;28;20044;-79
2021/08/14 01:18:01;;;;;;;25.38;6.55;;;;;;;19.81;64.04;102091.97;10520802;28;20064;-79
2021/08/14 01:23:01;;;;;;;19.83;6.82;;;;;;;19.86;65.11;102107.78;10503235;28;20032;-79
2021/08/14 01:28:02;;;;;;;11.75;5.05;;;;;;;19.89;64.85;102108.16;10503030;28;20040;-79
2021/08/14 01:33:03;;;;;;;22.75;4.57;;;;;;;19.88;64.63;102100.16;10535762;28;20040;-79
2021/08/14 01:38:03;;;;;;;18.88;5.68;;;;;;;19.84;64.65;102091.50;10501104;28;20036;-79
2021/08/14 01:43:04;;;;;;;14.40;4.78;;;;;;;19.74;65.15;102082.97;10516388;28;20032;-79
2021/08/14 01:48:06;;;;;;;14.13;5.40;;;;;;;19.89;64.52;102088.09;10517189;28;20111;-79
2021/08/14 01:53:06;;;;;;;29.48;5.55;;;;;;;19.78;64.29;102066.84;10517353;28;20492;-79
2021/08/14 01:58:07;;;;;;;16.08;7.05;;;;;;;19.85;64.68;102078.63;10537424;28;20071;-79
2021/08/14 02:03:07;;;;;;;12.25;6.25;;;;;;;19.78;64.26;102069.59;10522632;28;20459;-79
2021/08/14 02:08:08;;;;;;;17.00;5.55;;;;;;;19.80;64.76;102065.56;10522540;28;20078;-79
2021/08/14 02:13:10;;;;;;;21.05;7.22;;;;;;;19.79;65.37;102076.81;10538977;28;20077;-79
2021/08/14 02:18:10;;;;;;;23.83;7.70;;;;;;;19.60;65.21;102042.97;10539644;28;20388;-79
2021/08/14 02:23:10;;;;;;;17.50;5.85;;;;;;;19.78;64.81;102069.59;10539777;28;20044;-80
2021/08/14 02:28:11;;;;;;;16.35;6.13;;;;;;;19.60;66.07;102074.03;10539726;28;20507;-79
2021/08/14 02:33:11;;;;;;;19.25;6.22;;;;;;;19.08;67.36;102009.50;10539288;28;20045;-79
2021/08/14 02:38:12;;;;;;;24.13;6.93;;;;;;;19.62;66.00;102066.41;10521055;28;20119;-79
2021/08/14 02:43:13;;;;;;;19.15;6.75;;;;;;;19.63;65.20;102062.56;10538517;28;20032;-79
2021/08/14 02:48:13;;;;;;;12.70;5.68;;;;;;;19.71;65.29;102062.28;10537876;28;20028;-81
2021/08/14 02:53:14;;;;;;;17.55;6.90;;;;;;;19.64;65.76;102066.19;10521225;28;20073;-79
2021/08/14 02:58:14;;;;;;;23.35;7.47;;;;;;;19.57;65.88;102065.41;10520924;28;20387;-79
2021/08/14 03:03:15;;;;;;;34.97;8.55;;;;;;;19.57;66.61;102063.47;10503853;28;20043;-79
2021/08/14 03:08:15;;;;;;;20.85;6.68;;;;;;;19.55;67.18;102057.38;10541670;28;20124;-79
2021/08/14 03:13:16;;;;;;;24.23;6.65;;;;;;;19.39;67.04;102052.50;10511352;28;20032;-80
2021/08/14 03:18:16;;;;;;;23.45;7.25;;;;;;;19.55;67.39;102068.34;10528592;28;20101;-80
2021/08/14 03:23:16;;;;;;;19.08;6.65;;;;;;;19.55;67.81;102068.34;10529027;28;20398;-80
2021/08/14 03:28:17;;;;;;;12.80;5.03;;;;;;;19.49;67.71;102056.38;10546448;28;20064;-79
2021/08/14 03:33:17;;;;;;;27.27;7.13;;;;;;;19.41;67.55;102042.13;10546845;28;20472;-80
2021/08/14 03:38:18;;;;;;;19.77;5.97;;;;;;;19.29;67.77;102053.00;10527867;28;20032;-79
2021/08/14 03:43:19;;;;;;;18.83;7.53;;;;;;;19.38;67.40;102050.81;10545299;28;20039;-80
2021/08/14 03:48:20;;;;;;;25.52;7.57;;;;;;;19.37;68.36;102043.63;10527649;28;20036;-80
2021/08/14 03:53:20;;;;;;;39.22;9.50;;;;;;;19.36;67.88;102040.03;10545419;28;20055;-80
2021/08/14 03:58:20;;;;;;;27.33;8.10;;;;;;;18.97;68.81;102000.13;10527453;28;20123;-79
2021/08/14 04:03:21;;;;;;;22.60;6.53;;;;;;;19.05;67.77;102036.38;10545298;28;20044;-79
2021/08/14 04:08:21;;;;;;;18.45;7.72;;;;;;;18.94;68.57;102045.34;10544867;28;20032;-79
2021/08/14 04:13:22;;;;;;;31.05;8.82;;;;;;;18.81;68.13;102042.72;10525814;28;20071;-80
2021/08/14 04:18:22;;;;;;;19.98;8.18;;;;;;;18.74;68.56;102045.50;10543290;28;20067;-79
2021/08/14 04:23:24;;;;;;;20.02;7.88;;;;;;;18.69;68.31;102037.06;10544146;28;20118;-80
2021/08/14 04:28:24;;;;;;;12.32;5.75;;;;;;;18.57;69.41;102058.09;10526101;28;20097;-80
2021/08/14 04:33:24;;;;;;;21.15;8.55;;;;;;;18.63;69.47;102046.19;10525830;28;20081;-79
2021/08/14 04:38:25;;;;;;;19.02;7.63;;;;;;;18.49;68.75;102041.88;10525462;28;20060;-80
2021/08/14 04:43:25;;;;;;;19.45;7.65;;;;;;;18.57;69.81;102038.88;10523931;28;20087;-79
2021/08/14 04:48:26;;;;;;;23.33;10.02;;;;;;;18.52;69.17;102042.28;10525169;28;20479;-80
2021/08/14 04:53:26;;;;;;;14.50;7.50;;;;;;;18.64;69.22;102047.91;10542945;28;20537;-79
2021/08/14 04:58:27;;;;;;;21.38;8.20;;;;;;;18.77;69.68;102031.34;10508677;28;20036;-80
2021/08/14 05:03:28;;;;;;;30.42;7.65;;;;;;;18.83;69.73;102039.75;10542415;28;20040;-80
2021/08/14 05:08:28;;;;;;;24.92;9.75;;;;;;;18.99;69.58;102047.41;10542476;28;20056;-80
2021/08/14 05:13:28;;;;;;;36.22;10.52;;;;;;;18.90;69.06;102038.63;10541621;28;20118;-79
2021/08/14 05:18:29;;;;;;;23.60;9.50;;;;;;;19.17;69.14;102039.19;10523898;28;20083;-80
2021/08/14 05:23:29;;;;;;;27.92;11.43;;;;;;;19.40;68.68;102040.41;10523880;28;20066;-80
2021/08/14 05:28:31;;;;;;;26.25;8.50;;;;;;;19.87;68.69;102055.31;10523762;28;20119;-80
2021/08/14 05:33:31;;;;;;;19.33;9.23;;;;;;;20.13;67.89;102054.13;10523039;28;20051;-80
2021/08/14 05:38:31;;;;;;;31.35;10.07;;;;;;;20.26;67.78;102077.00;10541174;28;20119;-80
2021/08/14 05:43:32;;;;;;;19.05;11.55;;;;;;;20.23;67.59;102031.56;10540150;28;20115;-80
2021/08/14 05:48:32;;;;;;;19.05;8.10;;;;;;;20.43;67.24;102061.53;10540814;28;20036;-80
2021/08/14 05:53:33;;;;;;;15.02;8.75;;;;;;;20.60;67.33;102059.78;10540642;28;20040;-80
2021/08/14 05:58:33;;;;;;;17.23;10.13;;;;;;;20.98;66.87;102057.69;10540278;28;20100;-80
2021/08/14 06:03:35;;;;;;;30.02;11.20;;;;;;;21.52;65.40;102053.72;10540969;28;20590;-80
2021/08/14 06:08:35;;;;;;;26.15;9.00;;;;;;;22.07;65.53;102057.84;10522092;28;20100;-80
2021/08/14 06:13:37;;;;;;;13.45;9.55;;;;;;;23.33;62.61;102057.53;10538733;28;20028;-80
2021/08/14 06:18:41;;;;;;;17.20;10.02;;;;;;;23.34;61.50;102050.91;10521406;28;20048;-80
2021/08/14 06:23:41;;;;;;;22.63;11.43;;;;;;;23.10;62.18;102054.97;10522240;28;20042;-80
2021/08/14 06:28:42;;;;;;;19.63;10.27;;;;;;;22.96;62.74;102066.38;10521474;28;20024;-80
2021/08/14 06:33:43;;;;;;;32.05;10.80;;;;;;;22.57;63.37;102061.84;10521029;28;20072;-80
2021/08/14 06:38:43;;;;;;;30.42;10.68;;;;;;;22.07;64.21;102074.41;10521560;28;20482;-80
2021/08/14 06:43:44;;;;;;;24.65;10.63;;;;;;;22.08;64.45;102083.50;10519601;28;20043;-80
2021/08/14 06:48:44;;;;;;;19.42;10.20;;;;;;;22.20;66.08;102095.38;10539009;28;20059;-80
2021/08/14 06:53:48;;;;;;;27.25;7.85;;;;;;;21.92;64.73;102088.75;10538969;28;20426;-80
2021/08/14 06:58:48;;;;;;;31.80;11.18;;;;;;;22.70;64.96;102089.97;10538547;28;20460;-79
2021/08/14 07:03:49;;;;;;;24.70;10.25;;;;;;;22.82;64.04;102076.06;10538612;28;20188;-79
2021/08/14 07:08:49;;;;;;;34.28;9.70;;;;;;;23.98;60.95;102066.97;10520327;28;20555;-80
2021/08/14 07:13:50;;;;;;;23.10;10.20;;;;;;;23.02;63.71;102058.19;10538011;28;20369;-79
2021/08/14 07:18:50;;;;;;;19.40;10.25;;;;;;;22.85;61.74;102045.19;10520077;28;20048;-79
2021/08/14 07:23:52;;;;;;;15.88;10.07;;;;;;;23.30;61.81;102080.16;10538734;28;20085;-80
2021/08/14 07:28:52;;;;;;;22.48;11.60;;;;;;;23.67;62.33;102083.19;10538115;28;20066;-80
2021/08/14 07:33:53;;;;;;;19.65;10.77;;;;;;;24.51;61.48;102064.50;10458088;28;20053;-80
2021/08/14 07:38:53;;;;;;;32.47;13.05;;;;;;;25.13;61.26;102047.28;10537426;28;20036;-81
2021/08/14 07:43:54;;;;;;;26.30;10.30;;;;;;;25.93;58.05;102066.53;10519382;28;20063;-79
2021/08/14 07:48:55;;;;;;;18.52;9.60;;;;;;;26.23;56.46;102073.28;10519535;28;20123;-80
2021/08/14 07:53:57;;;;;;;24.45;10.00;;;;;;;26.35;58.26;102065.53;10539807;28;20032;-81
2021/08/14 07:58:57;;;;;;;19.40;7.68;;;;;;;26.07;57.86;102031.63;10544424;28;20039;-81
2021/08/14 08:03:58;;;;;;;18.95;8.43;;;;;;;25.90;56.86;102058.75;10526395;28;20092;-80
2021/08/14 08:08:58;;;;;;;16.50;8.43;;;;;;;25.90;57.20;102069.84;10504381;28;20535;-81
2021/08/14 08:13:58;;;;;;;10.48;7.53;;;;;;;25.81;56.04;102047.34;10537721;28;20111;-81
2021/08/14 08:18:59;;;;;;;18.20;8.43;;;;;;;25.90;55.96;102059.59;10519261;28;20048;-81
2021/08/14 08:23:59;;;;;;;38.22;10.25;;;;;;;26.73;55.10;102049.47;10517296;28;20536;-81
2021/08/14 08:29:00;;;;;;;7.38;5.30;;;;;;;27.80;53.37;102057.59;10534919;28;20032;-81
2021/08/14 08:34:01;;;;;;;22.98;7.22;;;;;;;28.37;55.57;102041.38;10499488;28;20035;-81
2021/08/14 08:39:01;;;;;;;15.95;8.20;;;;;;;29.21;52.27;102042.03;10533025;28;20462;-81
2021/08/14 08:44:02;;;;;;;11.60;6.38;;;;;;;29.05;50.62;102046.13;10532707;28;20139;-81
2021/08/14 08:49:03;;;;;;;16.02;5.95;;;;;;;28.21;50.23;102055.41;10532855;28;20065;-81
2021/08/14 08:54:03;;;;;;;7.00;5.10;;;;;;;27.45;50.90;102055.75;10497804;28;20466;-81
2021/08/14 08:59:05;;;;;;;15.60;5.38;;;;;;;28.15;51.77;101994.47;10513581;28;20060;-81
2021/08/14 09:04:23;;;;;;;16.83;5.20;;;;;;;27.47;50.64;102045.16;10497642;28;20054;-83
2021/08/14 09:09:28;;;;;;;14.50;5.60;;;;;;;26.74;50.93;102040.88;10533540;28;20067;-81
2021/08/14 09:14:48;;;;;;;21.65;5.95;;;;;;;28.02;51.52;102044.09;10514127;28;20032;-81
2021/08/14 09:19:50;;;;;;;13.18;5.43;;;;;;;28.24;49.87;102018.63;10499455;28;20043;-83
2021/08/14 09:24:51;;;;;;;5.65;4.72;;;;;;;27.72;48.96;102050.63;10500066;28;20071;-83
2021/08/14 09:29:51;;;;;;;6.38;4.43;;;;;;;28.42;50.61;102050.53;10520791;28;20031;-84
2021/08/14 09:34:53;;;;;;;13.15;5.20;;;;;;;28.22;47.49;102057.06;10496831;28;20102;-83
2021/08/14 09:39:59;;;;;;;17.38;6.88;;;;;;;27.99;50.62;102033.53;10512455;28;20043;-85
2021/08/14 09:45:13;;;;;;;10.48;4.88;;;;;;;28.84;46.55;102051.03;10512601;28;20417;-84
2021/08/14 09:50:14;;;;;;;11.23;6.32;;;;;;;28.66;46.80;102055.38;10495972;28;20052;-83
2021/08/14 09:55:26;;;;;;;10.80;5.10;;;;;;;28.60;47.77;102064.91;10512977;28;20044;-84
2021/08/14 10:00:28;;;;;;;13.40;5.03;;;;;;;27.16;47.24;102052.78;10476056;28;20400;-83
2021/08/14 10:05:31;;;;;;;11.68;3.85;;;;;;;26.67;50.32;102060.59;10515160;28;20054;-83
2021/08/14 10:10:32;;;;;;;9.63;3.95;;;;;;;27.13;50.58;102057.78;10517278;28;20097;-82
2021/08/14 10:15:32;;;;;;;13.93;5.10;;;;;;;27.80;48.70;102043.69;10512882;28;20474;-83
2021/08/14 10:20:33;;;;;;;9.85;4.07;;;;;;;27.96;48.48;102050.00;10517534;28;20080;-83
2021/08/14 10:25:36;;;;;;;7.35;5.13;;;;;;;27.55;48.74;102014.81;10536537;28;20121;-82
2021/08/14 10:30:50;;;;;;;7.97;3.85;;;;;;;26.94;50.26;102012.19;10501706;28;20032;-83
2021/08/14 10:35:50;;;;;;;9.30;4.93;;;;;;;27.32;47.79;102051.63;10520006;28;20036;-82
2021/08/14 10:40:59;;;;;;;9.30;4.13;;;;;;;27.78;48.45;102057.88;10516936;28;20408;-81
2021/08/14 10:46:33;;;;;;;15.43;4.93;;;;;;;28.76;46.00;102044.13;10498331;28;20036;-81
2021/08/14 10:51:51;;;;;;;6.03;4.60;;;;;;;29.04;42.91;101974.75;10518378;28;20336;-81
2021/08/14 10:56:52;;;;;;;4.60;4.07;;;;;;;29.16;44.26;102040.13;10533998;28;20034;-81
2021/08/14 11:01:52;;;;;;;13.00;5.72;;;;;;;30.42;42.40;102023.13;10514821;28;20028;-81
2021/08/14 11:06:53;;;;;;;8.15;4.30;;;;;;;30.31;42.70;102028.88;10515128;28;20443;-82
2021/08/14 11:11:59;;;;;;;9.45;4.15;;;;;;;30.62;45.24;101985.59;10498303;28;20039;-82
2021/08/14 11:17:02;;;;;;;8.60;4.13;;;;;;;30.75;41.10;102049.09;10532602;28;20028;-81
2021/08/14 11:22:24;;;;;;;6.30;4.28;;;;;;;30.75;42.51;101873.75;10532930;28;20369;-82
2021/08/14 11:27:26;;;;;;;6.93;3.47;;;;;;;31.35;40.94;102042.72;10532666;28;20132;-81
2021/08/14 11:32:27;;;;;;;6.70;3.35;;;;;;;32.18;37.67;102032.22;10523020;28;20471;-82
2021/08/14 11:37:28;;;;;;;9.05;4.90;;;;;;;31.86;40.54;102025.63;10506992;28;20111;-83
2021/08/14 11:42:30;;;;;;;9.40;5.20;;;;;;;32.19;39.59;102017.03;10522143;28;20043;-83
2021/08/14 11:47:37;;;;;;;11.45;3.50;;;;;;;31.82;40.59;102041.44;10456750;28;20147;-83
2021/08/14 11:52:37;;;;;;;9.88;4.10;;;;;;;31.59;41.09;102032.13;10525014;28;20072;-83
2021/08/14 11:57:39;;;;;;;6.20;4.60;;;;;;;31.66;40.71;102024.13;10543095;28;20085;-83
2021/08/14 12:02:39;;;;;;;7.75;3.75;;;;;;;31.85;40.53;102025.97;10523472;28;20043;-83
2021/08/14 12:07:45;;;;;;;4.50;3.25;;;;;;;31.85;41.90;102032.41;10522372;28;20040;-83
2021/08/14 12:13:04;;;;;;;8.60;4.55;;;;;;;31.48;41.09;102009.09;10540822;28;20036;-83
2021/08/14 12:18:05;;;;;;;9.95;4.75;;;;;;;31.00;40.49;101969.50;10507448;28;20040;-82
2021/08/14 12:23:28;;;;;;;16.27;3.83;;;;;;;31.27;41.81;102025.47;10543588;28;20136;-80
2021/08/14 12:28:32;;;;;;;7.35;3.05;;;;;;;32.43;39.28;102011.16;10504918;28;20040;-80
2021/08/14 12:33:33;;;;;;;15.80;4.50;;;;;;;32.28;39.52;101997.50;10539331;28;20467;-82
2021/08/14 12:38:34;;;;;;;6.55;3.67;;;;;;;32.45;37.35;102020.06;10542046;28;20039;-85
2021/08/14 12:43:34;;;;;;;3.75;2.47;;;;;;;32.27;37.05;102007.88;10523685;28;20047;-85
2021/08/14 12:48:35;;;;;;;9.02;3.95;;;;;;;32.52;37.20;102025.25;10491559;28;20123;-85
2021/08/14 12:53:37;;;;;;;4.28;3.45;;;;;;;32.93;38.63;102013.78;10509026;28;20034;-86
2021/08/14 12:58:37;;;;;;;6.60;3.15;;;;;;;31.90;37.76;101933.41;10508372;28;20040;-83
2021/08/14 13:03:40;;;;;;;7.93;3.85;;;;;;;32.76;38.40;102008.06;10524653;28;20040;-82
2021/08/14 13:08:41;;;;;;;5.95;3.20;;;;;;;32.69;37.55;102014.13;10542860;28;20115;-83
2021/08/14 13:13:42;;;;;;;9.52;3.85;;;;;;;32.74;41.43;101983.16;10507045;28;20043;-81
2021/08/14 13:18:42;;;;;;;10.57;3.15;;;;;;;32.21;36.29;102011.13;10507188;28;20509;-82
2021/08/14 13:23:43;;;;;;;5.45;4.10;;;;;;;32.18;36.85;101987.38;10507095;28;20040;-81
2021/08/14 13:28:44;;;;;;;4.28;3.58;;;;;;;32.39;36.21;102015.72;10522568;28;20126;-82
2021/08/14 13:33:44;;;;;;;5.05;3.72;;;;;;;32.44;35.69;101997.97;10522832;28;20054;-82
2021/08/14 13:38:45;;;;;;;5.40;3.00;;;;;;;32.46;36.65;101968.47;10523125;28;20043;-80
2021/08/14 13:43:45;;;;;;;9.85;8.85;;;;;;;31.37;37.96;101948.91;10523125;28;20538;-80
2021/08/14 13:48:46;;;;;;;3.83;3.45;;;;;;;31.65;35.49;102016.88;10506657;28;20479;-84
2021/08/14 13:53:47;;;;;;;9.95;7.47;;;;;;;31.48;37.42;102025.09;10540662;28;20407;-84
2021/08/14 13:58:47;;;;;;;41.97;22.63;;;;;;;31.53;40.87;101971.78;10496230;28;20039;-83
2021/08/14 14:03:47;;;;;;;23.42;11.52;;;;;;;31.28;38.79;102013.13;10520916;28;20514;-83
2021/08/14 14:08:48;;;;;;;19.17;14.10;;;;;;;31.43;39.29;102022.38;10504331;28;20024;-83
2021/08/14 14:13:51;;;;;;;19.98;16.48;;;;;;;31.71;38.18;102024.00;10539003;28;20032;-82
2021/08/14 14:18:52;;;;;;;15.85;13.38;;;;;;;31.92;37.24;102013.22;10521265;28;20577;-82
2021/08/14 14:23:53;;;;;;;7.60;5.03;;;;;;;31.23;38.70;102024.41;10521235;28;20043;-82
2021/08/14 14:28:53;;;;;;;7.53;4.43;;;;;;;30.88;39.42;102027.91;10524186;28;20071;-81
2021/08/14 14:33:54;;;;;;;10.38;5.30;;;;;;;30.71;38.11;102006.94;10462700;28;20048;-82
2021/08/14 14:38:54;;;;;;;11.80;9.93;;;;;;;30.69;39.22;101975.66;10462505;28;20468;-82
2021/08/14 14:43:55;;;;;;;5.50;3.97;;;;;;;30.37;40.06;102006.41;10478284;28;20093;-82
2021/08/14 14:48:55;;;;;;;11.05;4.70;;;;;;;30.45;39.84;101988.97;10476682;28;20039;-82
2021/08/14 14:53:55;;;;;;;19.38;12.52;;;;;;;30.03;40.50;101996.31;10479785;28;20441;-84
2021/08/14 14:58:56;;;;;;;6.47;3.65;;;;;;;29.76;40.04;102003.41;10480214;28;20036;-84
2021/08/14 15:03:56;;;;;;;2.97;2.72;;;;;;;29.93;39.49;101993.66;10451965;28;20051;-83
2021/08/14 15:08:57;;;;;;;4.28;3.40;;;;;;;29.70;41.03;101990.63;10489313;28;20060;-84
2021/08/14 15:13:57;;;;;;;2.65;1.90;;;;;;;29.87;39.49;101999.34;10470884;28;20032;-83
2021/08/14 15:18:58;;;;;;;1.75;1.48;;;;;;;29.53;40.52;101977.19;10488879;28;20171;-83
2021/08/14 15:23:58;;;;;;;3.47;3.13;;;;;;;29.34;41.17;101962.38;10471563;28;20056;-83
2021/08/14 15:28:59;;;;;;;3.75;2.60;;;;;;;29.35;41.30;102015.06;10470673;28;20368;-84
2021/08/14 15:34:00;;;;;;;3.00;2.30;;;;;;;28.43;41.10;101995.63;10506058;28;20082;-83
2021/08/14 15:39:04;;;;;;;3.53;3.15;;;;;;;28.68;42.92;101995.41;10504286;28;20036;-83
2021/08/14 15:44:04;;;;;;;3.30;2.40;;;;;;;27.46;41.60;101901.63;10472128;28;20074;-83
2021/08/14 15:49:05;;;;;;;4.45;3.60;;;;;;;27.49;46.77;101913.00;10486464;28;20549;-83
2021/08/14 15:54:05;;;;;;;2.28;2.03;;;;;;;27.84;42.49;101964.03;10470553;28;20029;-83
2021/08/14 15:59:06;;;;;;;3.70;2.92;;;;;;;27.91;42.45;101963.72;10469916;28;20043;-83
2021/08/14 16:04:06;;;;;;;7.07;1.88;;;;;;;27.36;44.50;101919.22;10504513;28;20215;-83
2021/08/14 16:09:07;;;;;;;15.38;6.53;;;;;;;26.93;43.60;101954.09;10469985;28;20044;-83
2021/08/14 16:14:07;;;;;;;10.30;8.75;;;;;;;26.47;44.59;101948.59;10468667;28;20068;-83
2021/08/14 16:19:08;;;;;;;10.48;4.03;;;;;;;26.09;45.69;101948.88;10468180;28;20097;-82
2021/08/14 16:24:10;;;;;;;7.82;3.55;;;;;;;25.78;45.85;101942.41;10484880;28;20503;-83
2021/08/14 16:29:10;;;;;;;2.25;1.98;;;;;;;25.39;48.79;101908.78;10485326;28;20036;-83
2021/08/14 16:34:11;;;;;;;2.20;2.03;;;;;;;25.14;48.16;101943.59;10484347;28;20036;-82
2021/08/14 16:39:12;;;;;;;3.47;1.60;;;;;;;25.13;48.24;101928.06;10502166;28;20110;-82
2021/08/14 16:44:13;;;;;;;2.95;2.13;;;;;;;25.07;47.57;101929.13;10483019;28;20399;-82
2021/08/14 16:49:14;;;;;;;3.53;2.17;;;;;;;24.74;47.82;101933.94;10501465;28;20102;-82
2021/08/14 16:54:15;;;;;;;2.08;1.88;;;;;;;24.70;48.27;101932.81;10482945;28;20044;-82
2021/08/14 16:59:16;;;;;;;2.25;1.75;;;;;;;24.61;47.32;101926.13;10482876;28;20029;-82
2021/08/14 17:04:16;;;;;;;2.45;2.00;;;;;;;24.50;47.42;101929.91;10466177;28;20083;-82
2021/08/14 17:09:16;;;;;;;2.85;2.30;;;;;;;24.43;48.09;101918.22;10482630;28;20567;-82
2021/08/14 17:14:17;;;;;;;1.48;1.38;;;;;;;23.64;48.17;101790.56;10481703;28;20097;-82
2021/08/14 17:19:17;;;;;;;1.88;1.77;;;;;;;24.43;47.38;101916.28;10464852;28;20060;-82
2021/08/14 17:24:18;;;;;;;2.67;2.47;;;;;;;24.27;47.90;101875.72;10482211;28;20396;-82
2021/08/14 17:29:18;;;;;;;10.15;2.30;;;;;;;24.36;47.60;101907.34;10481357;28;20028;-82
2021/08/14 17:34:19;;;;;;;2.75;2.33;;;;;;;24.18;47.35;101894.75;10481476;28;20086;-82
2021/08/14 17:39:19;;;;;;;2.78;2.60;;;;;;;24.16;48.41;101896.13;10482044;28;20197;-82
2021/08/14 17:44:23;;;;;;;4.20;3.03;;;;;;;24.06;48.65;101892.19;10498841;28;20032;-82
2021/08/14 17:49:23;;;;;;;5.05;2.22;;;;;;;23.45;49.05;101816.91;10465474;28;20016;-83
2021/08/14 17:54:24;;;;;;;1.88;1.70;;;;;;;23.67;50.45;101847.25;10464818;28;20241;-81
2021/08/14 17:59:25;;;;;;;0.82;0.82;;;;;;;23.81;49.80;101878.97;10463907;28;20024;-81
2021/08/14 18:04:26;;;;;;;1.75;1.65;;;;;;;23.64;49.02;101856.94;10479761;28;20408;-82
2021/08/14 18:09:26;;;;;;;1.85;1.67;;;;;;;22.18;49.18;101634.91;10447652;28;20433;-82
2021/08/14 18:14:27;;;;;;;3.75;2.28;;;;;;;23.50;49.36;101843.78;10463447;28;20115;-81
2021/08/14 18:19:29;;;;;;;1.42;1.27;;;;;;;23.48;49.75;101868.06;10463581;28;20462;-81
2021/08/14 18:24:29;;;;;;;2.03;1.65;;;;;;;23.30;50.14;101845.25;10480243;28;20391;-82
2021/08/14 18:29:30;;;;;;;5.95;1.55;;;;;;;23.41;50.77;101866.34;10497689;28;20112;-82
2021/08/14 18:34:30;;;;;;;1.63;1.52;;;;;;;23.26;51.15;101859.81;10479774;28;20120;-82
2021/08/14 18:39:31;;;;;;;4.80;2.13;;;;;;;23.13;51.58;101861.91;10462174;28;20048;-82
2021/08/14 18:44:31;;;;;;;3.95;2.25;;;;;;;22.76;53.22;101861.69;10478351;28;20048;-82
2021/08/14 18:49:32;;;;;;;1.88;1.67;;;;;;;22.03;51.90;101734.78;10462772;28;20043;-82
2021/08/14 18:54:32;;;;;;;2.47;1.90;;;;;;;22.69;52.20;101844.47;10462778;28;20097;-82
2021/08/14 18:59:33;;;;;;;6.85;2.17;;;;;;;22.68;52.06;101853.84;10495933;28;20036;-81
2021/08/14 19:04:35;;;;;;;4.65;2.00;;;;;;;21.88;52.44;101751.13;10497086;28;20098;-82
2021/08/14 19:09:35;;;;;;;2.15;1.95;;;;;;;22.36;52.47;101848.97;10496904;28;20052;-82
2021/08/14 19:14:38;;;;;;;6.30;2.42;;;;;;;22.24;52.75;101849.09;10478194;28;20064;-82
2021/08/14 19:19:39;;;;;;;4.13;2.05;;;;;;;21.84;52.85;101785.81;10495707;28;20406;-82
2021/08/14 19:24:40;;;;;;;8.68;2.35;;;;;;;22.19;53.62;101859.19;10473077;28;20036;-82
2021/08/14 19:29:40;;;;;;;3.63;1.90;;;;;;;22.13;53.55;101862.94;10456193;28;20471;-81
2021/08/14 19:34:42;;;;;;;4.68;3.35;;;;;;;21.21;53.80;101729.88;10472570;28;20470;-81
2021/08/14 19:39:42;;;;;;;7.80;3.95;;;;;;;21.96;54.02;101858.25;10471826;28;20433;-81
2021/08/14 19:44:43;;;;;;;9.55;4.95;;;;;;;21.56;54.35;101817.03;10469632;28;20191;-81
2021/08/14 19:49:44;;;;;;;2.58;2.38;;;;;;;21.76;54.06;101857.88;10470381;28;20135;-81
2021/08/14 19:54:45;;;;;;;2.90;2.20;;;;;;;21.76;53.91;101853.25;10475772;28;20113;-81
2021/08/14 19:59:45;;;;;;;4.82;3.13;;;;;;;21.71;54.43;101858.66;10476834;28;20031;-82
2021/08/14 20:04:46;;;;;;;2.78;2.22;;;;;;;21.36;54.99;101804.56;10459523;28;20543;-81
2021/08/14 20:09:47;;;;;;;3.70;2.35;;;;;;;21.53;55.09;101850.59;10474580;28;20392;-81
2021/08/14 20:14:47;;;;;;;3.58;2.08;;;;;;;21.41;55.45;101819.50;10457985;28;20406;-82
2021/08/14 20:19:48;;;;;;;5.53;2.50;;;;;;;21.13;55.68;101785.38;10457686;28;20060;-81
2021/08/14 20:24:52;;;;;;;6.18;3.03;;;;;;;21.30;55.04;101826.72;10458087;28;20040;-82
2021/08/14 20:29:52;;;;;;;3.28;2.70;;;;;;;21.21;55.59;101809.75;10457259;28;20116;-82
2021/08/14 20:34:54;;;;;;;12.27;3.05;;;;;;;21.19;55.70;101816.59;10456713;28;20036;-81
2021/08/14 20:39:55;;;;;;;2.92;2.70;;;;;;;21.02;55.89;101797.25;10456386;28;20048;-81
2021/08/14 20:44:56;;;;;;;3.85;2.88;;;;;;;21.12;55.75;101831.34;10456778;28;20044;-81
2021/08/14 20:49:58;;;;;;;3.28;2.60;;;;;;;21.03;56.05;101813.53;10457596;28;20041;-81
2021/08/14 20:55:00;;;;;;;5.28;3.08;;;;;;;20.93;56.50;101815.25;10473742;28;20105;-82
2021/08/14 21:00:02;;;;;;;4.55;3.03;;;;;;;20.92;56.25;101808.91;10475296;28;20051;-82
2021/08/14 21:05:03;;;;;;;6.88;3.13;;;;;;;20.77;56.89;101812.19;10496481;28;20036;-81
2021/08/14 21:10:04;;;;;;;2.67;2.15;;;;;;;20.80;56.58;101810.84;10462426;28;20135;-82
2021/08/14 21:15:06;;;;;;;5.93;2.47;;;;;;;20.78;57.08;101802.84;10479599;28;20050;-81
2021/08/14 21:20:07;;;;;;;10.38;2.58;;;;;;;20.71;56.86;101826.94;10478206;28;20063;-81
2021/08/14 21:25:10;;;;;;;4.00;2.28;;;;;;;20.70;57.17;101808.72;10478326;28;20102;-81
2021/08/14 21:30:10;;;;;;;6.22;2.90;;;;;;;20.71;57.34;101810.41;10462269;28;20041;-81
2021/08/14 21:35:11;;;;;;;5.88;2.72;;;;;;;20.79;56.96;101806.44;10479990;28;20036;-81
2021/08/14 21:40:12;;;;;;;5.75;2.60;;;;;;;20.77;57.10;101772.81;10478815;28;20040;-80
2021/08/14 21:45:13;;;;;;;6.00;3.10;;;;;;;20.55;57.35;101773.47;10463561;28;20040;-80
2021/08/14 21:50:14;;;;;;;8.90;3.15;;;;;;;20.76;57.43;101790.41;10490150;28;20364;-80
2021/08/14 21:55:15;;;;;;;8.63;3.17;;;;;;;20.68;57.40;101791.63;10473325;28;20071;-81
2021/08/14 22:00:20;;;;;;;7.22;3.35;;;;;;;20.55;58.38;101790.00;10440835;28;20059;-81
2021/08/14 22:05:21;;;;;;;5.57;2.20;;;;;;;20.63;57.57;101783.25;10473451;28;20032;-81
2021/08/14 22:10:21;;;;;;;3.25;2.95;;;;;;;20.60;57.59;101773.56;10471843;28;20074;-81
2021/08/14 22:15:22;;;;;;;5.35;3.08;;;;;;;20.55;57.36;101773.47;10489762;28;20055;-81
2021/08/14 22:20:22;;;;;;;5.95;2.03;;;;;;;20.30;57.63;101726.13;10474669;28;20075;-81
2021/08/14 22:25:23;;;;;;;4.75;2.30;;;;;;;20.59;57.25;101765.56;10475050;28;20068;-81
2021/08/14 22:30:25;;;;;;;7.85;3.38;;;;;;;20.44;57.62;101761.38;10478269;28;20044;-81
2021/08/14 22:35:26;;;;;;;4.75;3.63;;;;;;;20.41;57.77;101775.59;10496583;28;20037;-82
2021/08/14 22:40:29;;;;;;;4.25;1.95;;;;;;;20.55;57.49;101762.47;10478126;28;20024;-81
2021/08/14 22:45:30;;;;;;;6.18;2.85;;;;;;;20.58;57.22;101753.72;10492817;28;20125;-82
2021/08/14 22:50:30;;;;;;;5.40;2.92;;;;;;;20.70;57.08;101755.59;10493626;28;20100;-81
2021/08/14 22:55:31;;;;;;;3.80;2.97;;;;;;;20.30;56.97;101660.13;10478125;28;20033;-82